Arbyrd, Missouri
Current Conditions -  °F | °C
As of 10:53 PM on Saturday 20 Dec 2014 (Local Time) from KHKA Reporting Station
Clear Clear  
Wind Chill: 29°   Ceiling: Unl
Heat Index: 33°   Visibility: 8mi
Dew Point: 31°   Wind: 5mph
Humidity: 92%   Direction: 50°NE
Pressure: 30.27"   Gusts: NA
Location:  36.05°N, 90.24°W
Report Text: KHKA 210453Z AUTO 05004KT 8SM CLR 01/M01 A3027 RMK AO2 SLP252 T00061006
Loading
Personal Weather Stations






























Interactive Weather Map New forecast layout! Learn more

10-Day Weather Forecast

Advertisements
Track Severe Weather on mobile